createdAt,value
2022-11-05T00:02:31.249Z,13.50
2022-11-05T00:07:32.037Z,12.50
2022-11-05T00:12:32.757Z,12.80
2022-11-05T00:17:33.507Z,11.90
2022-11-05T00:22:34.227Z,11.10
2022-11-05T00:27:34.952Z,10.30
2022-11-05T00:32:35.692Z,10.60
2022-11-05T00:37:36.428Z,10.30
2022-11-05T00:42:37.189Z,9.30
2022-11-05T00:47:44.912Z,9.30
2022-11-05T00:52:38.592Z,8.90
2022-11-05T00:57:39.218Z,9.70
2022-11-05T01:02:40.115Z,9.10
2022-11-05T01:07:40.649Z,9.10
2022-11-05T01:12:41.307Z,8.50
2022-11-05T01:17:42.068Z,8.50
2022-11-05T01:22:42.799Z,8.50
2022-11-05T01:27:43.538Z,8.40
2022-11-05T01:32:44.271Z,8.30
2022-11-05T01:37:44.981Z,8.20
2022-11-05T01:42:45.727Z,8.30
2022-11-05T01:47:46.563Z,8.40
2022-11-05T01:52:47.220Z,8.30
2022-11-05T01:57:47.949Z,8.20
2022-11-05T02:02:48.757Z,8.00
2022-11-05T02:07:49.521Z,7.70
2022-11-05T02:12:50.259Z,7.80
2022-11-05T02:17:50.970Z,8.00
2022-11-05T02:22:51.696Z,8.20
2022-11-05T02:27:52.439Z,8.90
2022-11-05T02:32:53.185Z,9.90
2022-11-05T02:37:53.893Z,9.90
2022-11-05T02:42:54.621Z,11.20
2022-11-05T02:47:55.358Z,11.40
2022-11-05T02:52:56.061Z,11.70
2022-11-05T02:57:56.809Z,12.10
2022-11-05T03:02:57.677Z,11.60
2022-11-05T03:07:58.519Z,11.80
2022-11-05T03:12:59.207Z,12.30
2022-11-05T03:17:59.931Z,12.10
2022-11-05T03:23:00.633Z,12.50
2022-11-05T03:28:01.337Z,14.40
2022-11-05T03:33:02.073Z,12.40
2022-11-05T03:38:02.790Z,11.50
2022-11-05T03:43:03.471Z,11.50
2022-11-05T03:48:04.196Z,12.00
2022-11-05T03:53:04.880Z,12.00
2022-11-05T03:58:05.694Z,12.40
2022-11-05T04:03:06.515Z,12.30
2022-11-05T04:08:12.947Z,12.60
2022-11-05T04:13:09.126Z,11.40
2022-11-05T04:18:08.619Z,12.10
2022-11-05T04:23:09.587Z,11.40
2022-11-05T04:28:09.997Z,11.60
2022-11-05T04:33:11.032Z,11.50
2022-11-05T04:38:11.601Z,11.10
2022-11-05T04:43:15.080Z,11.20
2022-11-05T04:48:13.087Z,10.80
2022-11-05T04:53:14.089Z,10.80
2022-11-05T04:58:14.544Z,10.10
2022-11-05T05:03:15.250Z,9.90
2022-11-05T05:08:16.058Z,10.10
2022-11-05T05:13:16.768Z,10.20
2022-11-05T05:18:17.601Z,9.30
2022-11-05T05:23:18.299Z,9.60
2022-11-05T05:28:19.065Z,9.50
2022-11-05T05:33:19.760Z,9.80
2022-11-05T05:38:20.487Z,9.90
2022-11-05T05:43:21.159Z,9.90
2022-11-05T05:48:21.792Z,9.30
2022-11-05T05:53:22.496Z,9.90
2022-11-05T05:58:23.141Z,9.90
2022-11-05T06:03:23.820Z,10.30
2022-11-05T06:08:24.535Z,9.70
2022-11-05T06:13:25.189Z,10.00
2022-11-05T06:18:25.975Z,9.90
2022-11-05T06:23:26.663Z,9.60
2022-11-05T06:28:27.371Z,9.30
2022-11-05T06:33:28.012Z,9.70
2022-11-05T06:38:28.724Z,8.90
2022-11-05T06:43:29.379Z,8.80
2022-11-05T06:48:30.033Z,9.10
2022-11-05T06:53:30.704Z,7.80
2022-11-05T06:58:31.379Z,8.30
2022-11-05T07:03:32.017Z,8.10
2022-11-05T07:08:32.720Z,7.60
2022-11-05T07:13:33.445Z,7.70
2022-11-05T07:18:34.133Z,8.10
2022-11-05T07:23:34.809Z,7.80
2022-11-05T07:28:35.474Z,7.60
2022-11-05T07:33:36.816Z,7.80
2022-11-05T07:38:37.295Z,7.00
2022-11-05T07:43:37.937Z,7.70
2022-11-05T07:48:38.568Z,7.50
2022-11-05T07:53:44.882Z,6.80
2022-11-05T07:58:40.772Z,7.30
2022-11-05T08:03:40.718Z,7.60
2022-11-05T08:08:41.063Z,7.10
2022-11-05T08:13:41.841Z,6.90
2022-11-05T08:18:42.673Z,7.20
2022-11-05T08:23:43.348Z,7.40
2022-11-05T08:28:44.142Z,7.40
2022-11-05T08:33:44.768Z,7.50
2022-11-05T08:38:45.413Z,6.70
2022-11-05T08:43:46.269Z,6.40
2022-11-05T08:48:46.965Z,6.70
2022-11-05T08:53:47.688Z,6.10
2022-11-05T08:58:48.386Z,6.50
2022-11-05T09:03:49.056Z,6.30
2022-11-05T09:08:49.892Z,5.80
2022-11-05T09:13:50.636Z,5.80
2022-11-05T09:18:51.396Z,6.00
2022-11-05T09:23:52.070Z,6.50
2022-11-05T09:28:52.772Z,6.40
2022-11-05T09:33:53.425Z,6.20
2022-11-05T09:38:54.267Z,5.80
2022-11-05T09:43:54.890Z,5.40
2022-11-05T09:48:55.580Z,5.90
2022-11-05T09:53:56.340Z,5.20
2022-11-05T09:58:57.095Z,8.80
2022-11-05T10:03:57.857Z,5.00
2022-11-05T10:08:58.669Z,5.00
2022-11-05T10:13:59.448Z,6.50
2022-11-05T10:19:00.297Z,4.50
2022-11-05T10:24:00.925Z,4.40
2022-11-05T10:29:01.641Z,3.90
2022-11-05T10:34:02.452Z,3.90
2022-11-05T10:39:04.695Z,3.50
2022-11-05T10:44:03.828Z,3.40
2022-11-05T10:49:04.765Z,2.80
2022-11-05T10:54:05.568Z,3.00
2022-11-05T10:59:11.856Z,3.10
2022-11-05T11:04:07.953Z,3.20
2022-11-05T11:09:07.565Z,3.30
2022-11-05T11:14:08.199Z,3.80
2022-11-05T11:19:09.943Z,2.80
2022-11-05T11:24:09.615Z,2.40
2022-11-05T11:29:10.477Z,3.30
2022-11-05T11:34:13.227Z,2.90
2022-11-05T11:39:11.972Z,2.70
2022-11-05T11:44:12.597Z,3.10
2022-11-05T11:49:13.322Z,3.30
2022-11-05T11:54:14.062Z,3.10
2022-11-05T11:59:14.846Z,2.60
2022-11-05T12:04:15.468Z,2.40
2022-11-05T12:09:16.212Z,2.50
2022-11-05T12:14:17.048Z,2.50
2022-11-05T12:19:17.765Z,2.00
2022-11-05T12:24:18.383Z,2.60
2022-11-05T12:29:19.609Z,2.10
2022-11-05T12:34:19.824Z,2.00
2022-11-05T12:39:20.545Z,2.20
2022-11-05T12:44:21.416Z,1.90
2022-11-05T12:49:30.234Z,1.80
2022-11-05T12:54:22.886Z,2.50
2022-11-05T12:59:23.562Z,2.50
2022-11-05T13:04:24.320Z,2.80
2022-11-05T13:09:25.076Z,2.30
2022-11-05T13:14:25.762Z,2.30
2022-11-05T13:19:26.584Z,2.40
2022-11-05T13:24:27.394Z,2.30
2022-11-05T13:29:28.773Z,2.30
2022-11-05T13:34:31.212Z,2.20
2022-11-05T13:39:30.284Z,2.20
2022-11-05T13:44:30.079Z,3.80
2022-11-05T13:49:30.916Z,2.50
2022-11-05T13:54:31.702Z,2.70
2022-11-05T13:59:32.486Z,2.40
2022-11-05T14:04:33.249Z,2.10
2022-11-05T14:09:34.040Z,1.90
2022-11-05T14:14:34.907Z,2.20
2022-11-05T14:19:35.690Z,2.50
2022-11-05T14:24:36.528Z,2.20
2022-11-05T14:29:37.342Z,2.20
2022-11-05T14:34:38.126Z,2.00
2022-11-05T14:39:38.944Z,2.40
2022-11-05T14:44:39.848Z,2.80
2022-11-05T14:49:40.515Z,3.40
2022-11-05T14:54:40.759Z,3.20
2022-11-05T14:59:41.502Z,3.10
2022-11-05T15:04:42.191Z,3.30
2022-11-05T15:09:43.022Z,3.20
2022-11-05T15:14:43.742Z,6.20
2022-11-05T15:19:44.432Z,4.40
2022-11-05T15:24:45.144Z,4.20
2022-11-05T15:29:45.810Z,3.50
2022-11-05T15:34:46.597Z,3.80
2022-11-05T15:39:47.292Z,4.10
2022-11-05T15:44:47.994Z,4.40
2022-11-05T15:49:48.872Z,4.00
2022-11-05T15:54:49.706Z,3.40
2022-11-05T15:59:50.387Z,3.00
2022-11-05T16:04:51.074Z,3.30
2022-11-05T16:09:51.785Z,2.80
2022-11-05T16:14:52.507Z,3.30
2022-11-05T16:19:53.233Z,3.80
2022-11-05T16:24:53.977Z,3.60
2022-11-05T16:29:54.852Z,4.40
2022-11-05T16:34:55.547Z,4.70
2022-11-05T16:39:56.328Z,5.50
2022-11-05T16:44:57.031Z,3.70
2022-11-05T16:49:57.789Z,4.20
2022-11-05T16:54:58.535Z,3.40
2022-11-05T16:59:59.378Z,3.50
2022-11-05T17:05:00.206Z,4.00
2022-11-05T17:10:00.946Z,4.50
2022-11-05T17:15:01.637Z,4.40
2022-11-05T17:20:02.357Z,5.20
2022-11-05T17:25:03.082Z,4.70
2022-11-05T17:30:03.841Z,3.70
2022-11-05T17:35:04.611Z,3.80
2022-11-05T17:40:05.341Z,3.70
2022-11-05T17:45:06.168Z,3.90
2022-11-05T17:50:06.881Z,3.80
2022-11-05T17:55:07.612Z,4.70
2022-11-05T18:00:08.361Z,4.30
2022-11-05T18:05:09.067Z,4.50
2022-11-05T18:10:09.819Z,4.40
2022-11-05T18:15:10.520Z,4.80
2022-11-05T18:20:15.875Z,4.80
2022-11-05T18:25:12.893Z,4.60
2022-11-05T18:30:12.600Z,4.30
2022-11-05T18:35:13.439Z,4.50
2022-11-05T18:40:14.204Z,4.50
2022-11-05T18:45:14.887Z,4.60
2022-11-05T18:50:22.627Z,4.70
2022-11-05T18:55:16.350Z,5.00
2022-11-05T19:00:17.044Z,5.00
2022-11-05T19:05:33.188Z,5.00
2022-11-05T19:10:19.331Z,5.50
2022-11-05T19:15:19.170Z,5.70
2022-11-05T19:20:20.041Z,7.00
2022-11-05T19:25:20.744Z,7.00
2022-11-05T19:30:21.540Z,6.40
2022-11-05T19:35:22.384Z,6.80
2022-11-05T19:40:23.127Z,9.30
2022-11-05T19:45:43.628Z,6.00
2022-11-05T19:50:25.569Z,5.90
2022-11-05T19:55:25.297Z,6.40
2022-11-05T20:00:25.982Z,6.50
2022-11-05T20:05:26.735Z,7.40
2022-11-05T20:10:27.435Z,6.50
2022-11-05T20:15:28.270Z,7.70
2022-11-05T20:20:29.001Z,7.50
2022-11-05T20:25:29.775Z,12.40
2022-11-05T20:30:30.483Z,10.40
2022-11-05T20:35:31.308Z,9.00
2022-11-05T20:40:32.102Z,9.00
2022-11-05T20:45:32.899Z,9.00
2022-11-05T20:50:33.640Z,8.30
2022-11-05T20:55:34.388Z,8.20
2022-11-05T21:00:35.157Z,8.60
2022-11-05T21:05:35.953Z,9.20
2022-11-05T21:10:36.706Z,9.50
2022-11-05T21:15:37.399Z,9.60
2022-11-05T21:20:38.217Z,9.70
2022-11-05T21:25:39.038Z,9.80
2022-11-05T21:30:39.773Z,10.20
2022-11-05T21:35:40.572Z,9.70
2022-11-05T21:40:41.271Z,9.90
2022-11-05T21:45:42.008Z,8.40
2022-11-05T21:50:42.780Z,9.80
2022-11-05T21:55:43.484Z,9.20
2022-11-05T22:00:44.267Z,8.50
2022-11-05T22:05:45.173Z,7.60
2022-11-05T22:10:45.855Z,10.00
2022-11-05T22:15:46.644Z,10.40
2022-11-05T22:20:47.391Z,9.50
2022-11-05T22:25:48.074Z,8.90
2022-11-05T22:30:48.864Z,7.80
2022-11-05T22:35:49.595Z,7.20
2022-11-05T22:40:50.287Z,6.60
2022-11-05T22:45:50.966Z,6.40
2022-11-05T22:50:51.671Z,6.50
2022-11-05T22:55:52.387Z,6.40
2022-11-05T23:00:53.115Z,9.10
2022-11-05T23:05:53.882Z,6.30
2022-11-05T23:10:54.593Z,6.40
2022-11-05T23:15:55.317Z,6.50
2022-11-05T23:20:56.069Z,5.90
2022-11-05T23:25:56.793Z,6.00
2022-11-05T23:30:57.504Z,5.50
2022-11-05T23:35:58.269Z,5.40
2022-11-05T23:40:58.990Z,5.20
2022-11-05T23:45:59.687Z,5.30
2022-11-05T23:51:00.441Z,5.90
2022-11-05T23:56:01.187Z,5.40
